Time;durP1;ratioP1;P1;durP2;ratioP2;P2;SDS_P1;SDS_P2;PMS_P1;PMS_P2;Temp;Humidity;BMP_temperature;BMP_pressure;BME280_temperature;BME280_humidity;BME280_pressure;Samples;Min_cycle;Max_cycle;Signal;HPM_P1;HPM_P2
2023/05/02 00:00:32;;;;;;;26.85;12.82;;;;;;;-146.27;100.00;83481.16;5030427;28;20022;-70
2023/05/02 00:02:58;;;;;;;24.45;13.65;;;;;;;-146.27;100.00;83469.09;5030715;28;20040;-69
2023/05/02 00:05:23;;;;;;;23.85;12.60;;;;;;;-146.27;100.00;83446.97;5030490;28;20032;-69
2023/05/02 00:07:50;;;;;;;21.73;12.80;;;;;;;-146.27;100.00;83453.00;5031150;28;20044;-70
2023/05/02 00:10:16;;;;;;;26.80;12.40;;;;;;;-146.27;100.00;83434.94;5029180;28;20037;-68
2023/05/02 00:12:41;;;;;;;17.73;10.27;;;;;;;-146.27;100.00;83444.97;5029307;28;20448;-70
2023/05/02 00:15:08;;;;;;;21.63;10.50;;;;;;;-146.27;100.00;83412.81;5031055;28;20029;-70
2023/05/02 00:17:33;;;;;;;12.20;7.72;;;;;;;-146.27;100.00;83418.84;5028221;28;20392;-69
2023/05/02 00:19:58;;;;;;;13.45;7.97;;;;;;;-146.27;100.00;83404.78;5028918;28;20068;-69
2023/05/02 00:22:24;;;;;;;17.40;6.50;;;;;;;-146.27;100.00;83380.69;5030763;28;20022;-70
2023/05/02 00:24:50;;;;;;;11.07;6.63;;;;;;;-146.27;100.00;83376.66;5029231;28;20033;-70
2023/05/02 00:27:16;;;;;;;13.40;5.25;;;;;;;-146.27;100.00;83400.78;5030353;28;20049;-70
2023/05/02 00:29:41;;;;;;;8.88;4.63;;;;;;;-146.27;100.00;83388.72;5028510;28;20079;-70
2023/05/02 00:32:07;;;;;;;11.40;4.40;;;;;;;-146.27;100.00;83400.78;5029036;28;20029;-69
2023/05/02 00:34:32;;;;;;;9.55;4.10;;;;;;;-146.27;100.00;83406.78;5028831;28;20031;-69
2023/05/02 00:36:58;;;;;;;8.95;4.60;;;;;;;-146.27;100.00;83418.84;5012925;28;20052;-69
2023/05/02 00:39:23;;;;;;;18.52;5.05;;;;;;;-146.27;100.00;83408.81;5027901;28;20055;-69
2023/05/02 00:41:49;;;;;;;11.50;5.45;;;;;;;-146.27;100.00;83378.66;5028867;28;20040;-69
2023/05/02 00:44:14;;;;;;;16.30;5.65;;;;;;;-146.27;100.00;83402.78;5030372;28;20022;-69
2023/05/02 00:46:40;;;;;;;12.40;4.53;;;;;;;-146.27;100.00;83372.63;5028205;28;20488;-69
2023/05/02 00:49:05;;;;;;;9.75;4.00;;;;;;;-146.27;100.00;83372.63;5027652;28;20041;-70
2023/05/02 00:51:34;;;;;;;10.15;3.92;;;;;;;-146.27;100.00;83392.72;5029272;28;20056;-70
2023/05/02 00:54:00;;;;;;;10.13;4.18;;;;;;;-146.27;100.00;83376.66;5030512;28;20427;-70
2023/05/02 00:56:26;;;;;;;7.90;4.00;;;;;;;-146.27;100.00;83400.78;5029735;28;20342;-69
2023/05/02 00:58:52;;;;;;;19.55;4.60;;;;;;;-146.27;100.00;83396.75;5029312;28;20120;-70
2023/05/02 01:01:53;;;;;;;15.65;4.57;;;;;;;-146.27;100.00;83414.84;5028249;28;20361;-70
2023/05/02 01:04:40;;;;;;;15.48;3.80;;;;;;;-146.27;100.00;83416.84;5028908;28;20037;-70
2023/05/02 01:07:20;;;;;;;8.80;3.20;;;;;;;-146.27;100.00;83438.94;5029686;28;20025;-70
2023/05/02 01:10:35;;;;;;;9.30;3.00;;;;;;;-146.27;100.00;83428.91;5027375;28;20029;-70
2023/05/02 01:13:12;;;;;;;;;;;;;;;-146.27;100.00;83424.88;5027838;28;20099;-70
2023/05/02 01:15:40;;;;;;;6.63;2.30;;;;;;;-146.27;100.00;83467.06;5029416;28;19974;-70
2023/05/02 01:18:08;;;;;;;10.00;2.70;;;;;;;-146.27;100.00;83418.84;5027189;28;20029;-69
2023/05/02 01:20:38;;;;;;;5.32;2.03;;;;;;;-146.27;100.00;83436.94;5028043;28;20022;-70
2023/05/02 01:23:12;;;;;;;17.60;2.88;;;;;;;-146.27;100.00;83455.03;5028379;28;20048;-68
2023/05/02 01:25:50;;;;;;;12.63;2.58;;;;;;;-146.27;100.00;83444.97;5028207;28;20391;-70
2023/05/02 01:28:28;;;;;;;13.02;2.97;;;;;;;-146.27;100.00;83414.84;5029741;28;20029;-70
2023/05/02 01:30:55;;;;;;;23.38;3.58;;;;;;;-146.27;100.00;83438.94;5028313;28;20052;-69
2023/05/02 01:33:23;;;;;;;18.75;3.70;;;;;;;-146.27;100.00;83442.97;5028763;28;20550;-70
2023/05/02 01:35:51;;;;;;;15.48;4.00;;;;;;;-146.27;100.00;83477.13;5029292;28;20030;-70
2023/05/02 01:38:18;;;;;;;18.00;3.42;;;;;;;-146.27;100.00;83418.84;5025866;28;20371;-70
2023/05/02 01:40:45;;;;;;;20.00;3.60;;;;;;;-146.27;100.00;83461.06;5027963;28;20028;-70
2023/05/02 01:43:13;;;;;;;14.50;2.78;;;;;;;-146.27;100.00;83444.97;5029728;28;20033;-70
2023/05/02 01:45:41;;;;;;;10.13;3.85;;;;;;;-146.27;100.00;83451.00;5029798;28;20025;-70
2023/05/02 01:48:09;;;;;;;18.33;3.22;;;;;;;-146.27;100.00;83473.09;5028914;28;20028;-70
2023/05/02 01:50:36;;;;;;;16.42;2.70;;;;;;;-146.27;100.00;83473.09;5029680;28;20055;-70
2023/05/02 01:53:03;;;;;;;15.48;2.95;;;;;;;-146.27;100.00;83461.06;5030085;28;20029;-69
2023/05/02 01:55:30;;;;;;;10.45;2.50;;;;;;;-146.27;100.00;83491.19;5030107;28;20029;-69
2023/05/02 01:57:56;;;;;;;16.05;2.95;;;;;;;-146.27;100.00;83479.13;5027074;28;20543;-68
2023/05/02 02:00:24;;;;;;;5.43;2.33;;;;;;;-146.27;100.00;83495.22;5028605;28;20025;-70
2023/05/02 02:02:52;;;;;;;8.07;2.45;;;;;;;-146.27;100.00;83483.16;5029389;28;20464;-70
2023/05/02 02:05:20;;;;;;;9.07;2.35;;;;;;;-146.27;100.00;83513.28;5029297;28;20029;-70
2023/05/02 02:07:46;;;;;;;11.70;2.20;;;;;;;-146.27;100.00;83503.25;5029434;28;20052;-70
2023/05/02 02:10:12;;;;;;;16.15;2.42;;;;;;;-146.27;100.00;83487.16;5028262;28;20052;-70
2023/05/02 02:12:40;;;;;;;7.85;2.00;;;;;;;-146.27;100.00;83501.22;5032454;28;20081;-70
2023/05/02 02:15:31;;;;;;;10.13;2.22;;;;;;;-146.27;100.00;83503.25;5032845;28;20464;-70
2023/05/02 02:18:07;;;;;;;11.15;2.78;;;;;;;-146.27;100.00;83463.06;5032227;28;20071;-70
2023/05/02 02:20:34;;;;;;;8.82;1.83;;;;;;;-146.27;100.00;83509.28;5032248;28;20013;-70
2023/05/02 02:23:03;;;;;;;5.43;1.77;;;;;;;-146.27;100.00;83521.34;5031331;28;20076;-68
2023/05/02 02:25:30;;;;;;;12.02;2.15;;;;;;;-146.27;99.23;83517.31;5027086;28;20060;-70
2023/05/02 02:27:56;;;;;;;8.90;2.00;;;;;;;-146.27;98.61;83438.94;5029358;28;20039;-68
2023/05/02 02:30:22;;;;;;;9.40;1.95;;;;;;;-146.27;98.36;83517.31;5031805;28;20034;-69
2023/05/02 02:32:47;;;;;;;8.05;1.85;;;;;;;-146.27;97.99;83573.56;5031333;28;20103;-69
2023/05/02 02:35:13;;;;;;;7.15;1.42;;;;;;;-146.27;97.11;83519.31;5032628;28;20247;-70
2023/05/02 02:37:45;;;;;;;7.88;2.53;;;;;;;-146.27;95.95;83535.41;5032480;28;20033;-70
2023/05/02 02:40:30;;;;;;;10.02;1.60;;;;;;;-146.27;97.22;83551.47;5031546;28;20087;-70
2023/05/02 02:43:16;;;;;;;7.03;1.63;;;;;;;-146.27;96.83;83537.41;5032472;28;20063;-69
2023/05/02 02:45:52;;;;;;;6.57;1.45;;;;;;;-146.27;95.92;83529.38;5032932;28;20033;-69
2023/05/02 02:48:42;;;;;;;6.88;1.98;;;;;;;-146.27;94.13;83557.50;5031852;28;20030;-69
2023/05/02 02:51:14;;;;;;;8.15;1.67;;;;;;;-146.27;94.08;83517.31;5030887;28;20116;-69
2023/05/02 02:54:01;;;;;;;9.10;1.50;;;;;;;-146.27;94.11;83555.50;5030691;28;20029;-70
2023/05/02 02:56:33;;;;;;;3.55;1.48;;;;;;;-146.27;95.50;83535.41;5030795;28;20507;-69
2023/05/02 02:59:22;;;;;;;5.70;1.38;;;;;;;-146.27;94.38;83591.66;5031995;28;20368;-69
2023/05/02 03:02:01;;;;;;;2.33;1.40;;;;;;;-146.27;95.22;83585.63;5029843;28;20095;-69
2023/05/02 03:04:30;;;;;;;9.13;1.60;;;;;;;-146.27;95.44;83519.31;5031196;28;20045;-69
2023/05/02 03:06:56;;;;;;;8.50;1.40;;;;;;;-146.27;95.04;83535.41;5031974;28;20446;-70
2023/05/02 03:09:21;;;;;;;5.70;1.73;;;;;;;-146.27;95.17;83557.50;5030875;28;20025;-70
2023/05/02 03:11:46;;;;;;;4.82;1.30;;;;;;;-146.27;94.56;83563.53;5031031;28;20049;-70
2023/05/02 03:14:12;;;;;;;6.78;1.55;;;;;;;-146.27;95.38;83561.53;5031824;28;20022;-70
2023/05/02 03:16:40;;;;;;;8.48;1.83;;;;;;;-146.27;95.81;83581.59;5031736;28;20056;-70
2023/05/02 03:19:07;;;;;;;7.75;1.50;;;;;;;-146.27;95.78;83557.50;5031535;28;20032;-70
2023/05/02 03:21:33;;;;;;;12.27;1.85;;;;;;;-146.27;95.61;83519.31;5029558;28;20025;-70
2023/05/02 03:24:03;;;;;;;7.13;1.50;;;;;;;-146.27;94.78;83589.66;5031664;28;20139;-70
2023/05/02 03:26:29;;;;;;;10.00;1.63;;;;;;;-146.27;95.99;83545.44;5029647;28;20048;-70
2023/05/02 03:28:55;;;;;;;10.80;2.22;;;;;;;-146.27;96.46;83513.28;5030738;28;20033;-70
2023/05/02 03:31:21;;;;;;;7.28;1.80;;;;;;;-146.27;96.17;83581.59;5031455;28;20434;-70
2023/05/02 03:33:47;;;;;;;10.85;1.67;;;;;;;-146.27;95.53;83573.56;5031968;28;20021;-69
2023/05/02 03:36:12;;;;;;;7.93;1.48;;;;;;;-146.27;94.20;83581.59;5030368;28;20095;-69
2023/05/02 03:38:38;;;;;;;7.07;1.65;;;;;;;-146.27;92.75;83609.75;5031550;28;20021;-70
2023/05/02 03:41:03;;;;;;;3.00;1.20;;;;;;;-146.27;94.20;83601.72;5030993;28;20503;-69
2023/05/02 03:43:29;;;;;;;10.15;2.70;;;;;;;-146.27;93.62;83583.63;5032290;28;20112;-70
2023/05/02 03:45:54;;;;;;;5.50;1.25;;;;;;;-146.27;93.05;83551.47;5030219;28;20037;-71
2023/05/02 03:48:20;;;;;;;5.38;1.10;;;;;;;-146.27;93.48;83585.63;5031584;28;20037;-70
2023/05/02 03:50:46;;;;;;;10.82;1.63;;;;;;;-146.27;92.76;83545.44;5029361;28;20026;-70
2023/05/02 03:53:11;;;;;;;10.73;1.80;;;;;;;-146.27;93.61;83507.25;5029474;28;20029;-70
2023/05/02 03:55:40;;;;;;;6.50;1.40;;;;;;;-146.27;93.25;83585.63;5029308;28;20056;-70
2023/05/02 03:58:06;;;;;;;5.00;1.60;;;;;;;-146.27;92.76;83601.72;5026648;28;20112;-70
2023/05/02 04:00:31;;;;;;;4.50;1.38;;;;;;;-146.27;92.09;83595.69;5029330;28;20063;-70
2023/05/02 04:03:00;;;;;;;5.40;1.40;;;;;;;-146.27;90.91;83597.69;5024943;28;20083;-69
2023/05/02 04:05:25;;;;;;;9.02;1.40;;;;;;;-146.27;89.92;83609.75;5030530;28;20025;-69
2023/05/02 04:07:50;;;;;;;6.07;1.40;;;;;;;-146.27;91.24;83551.47;5030718;28;20080;-70
2023/05/02 04:10:16;;;;;;;4.22;1.50;;;;;;;-146.27;91.92;83631.84;5029893;28;20349;-70
2023/05/02 04:12:42;;;;;;;9.05;2.13;;;;;;;-146.27;92.79;83613.75;5029461;28;20053;-69
2023/05/02 04:15:09;;;;;;;13.73;1.58;;;;;;;-146.27;91.98;83565.53;5030801;28;20030;-70
2023/05/02 04:17:34;;;;;;;8.10;1.55;;;;;;;-146.27;90.67;83603.72;5030986;28;20033;-69
2023/05/02 04:20:00;;;;;;;8.60;1.60;;;;;;;-146.27;90.77;83569.56;5029946;28;20092;-69
2023/05/02 04:22:25;;;;;;;6.00;1.00;;;;;;;-146.27;90.29;83585.63;5031198;28;20040;-69
2023/05/02 04:24:50;;;;;;;8.32;1.45;;;;;;;-146.27;90.26;83579.59;5029451;28;20029;-69
2023/05/02 04:27:16;;;;;;;9.73;1.20;;;;;;;-146.27;89.82;83613.75;5027762;28;20037;-71
2023/05/02 04:29:41;;;;;;;7.90;1.92;;;;;;;-146.27;90.62;83589.66;5030058;28;20029;-69
2023/05/02 04:32:06;;;;;;;6.93;1.50;;;;;;;-146.27;90.84;83637.88;5030022;28;20495;-71
2023/05/02 04:34:32;;;;;;;7.13;2.03;;;;;;;-146.27;91.05;83597.69;5029378;28;20034;-69
2023/05/02 04:36:57;;;;;;;7.78;1.63;;;;;;;-146.27;91.04;83629.84;5030460;28;20365;-69
2023/05/02 04:39:22;;;;;;;5.95;1.77;;;;;;;-146.27;91.31;83593.66;5027804;28;20021;-70
2023/05/02 04:41:48;;;;;;;6.10;1.60;;;;;;;-146.27;90.40;83609.75;5030070;28;20033;-70
2023/05/02 04:44:13;;;;;;;16.48;2.42;;;;;;;-146.27;90.00;83609.75;5030167;28;20043;-70
2023/05/02 04:46:39;;;;;;;10.43;1.77;;;;;;;-146.27;90.29;83625.81;5028854;28;20126;-70
2023/05/02 04:49:04;;;;;;;6.40;1.83;;;;;;;-146.27;91.25;83597.69;5028730;28;20504;-70
2023/05/02 04:51:30;;;;;;;13.00;3.22;;;;;;;-146.27;91.08;83625.81;5029907;28;20025;-71
2023/05/02 04:53:56;;;;;;;10.90;2.20;;;;;;;-146.27;91.27;83609.75;5024153;28;20242;-69
2023/05/02 04:56:21;;;;;;;5.53;2.10;;;;;;;-146.27;90.50;83585.63;5020469;28;20022;-71
2023/05/02 04:58:46;;;;;;;18.17;2.08;;;;;;;-146.27;89.37;83597.69;5028904;28;20539;-70
2023/05/02 05:01:12;;;;;;;7.15;2.20;;;;;;;-146.27;88.94;83615.78;5026291;28;20118;-70
2023/05/02 05:03:37;;;;;;;11.32;2.08;;;;;;;-146.27;89.94;83613.75;5027855;28;20039;-70
2023/05/02 05:06:03;;;;;;;10.93;2.20;;;;;;;-146.27;89.38;83603.72;5029928;28;20488;-71
2023/05/02 05:08:28;;;;;;;13.23;2.25;;;;;;;-146.27;90.10;83657.97;5029439;28;20469;-69
2023/05/02 05:10:53;;;;;;;12.25;2.63;;;;;;;-146.27;90.68;83641.91;5028029;28;20033;-70
2023/05/02 05:13:19;;;;;;;10.30;2.42;;;;;;;-146.27;91.24;83641.91;5030547;28;20060;-69
2023/05/02 05:15:44;;;;;;;12.63;2.92;;;;;;;-146.27;91.39;83607.72;5029828;28;20026;-70
2023/05/02 05:18:10;;;;;;;11.32;2.42;;;;;;;-146.27;91.33;83635.88;5030153;28;20182;-70
2023/05/02 05:20:35;;;;;;;8.30;2.25;;;;;;;-146.27;91.79;83617.78;5029235;28;20104;-70
2023/05/02 05:23:01;;;;;;;10.48;2.40;;;;;;;-146.27;91.37;83621.81;5030433;28;20036;-70
2023/05/02 05:25:26;;;;;;;14.65;2.85;;;;;;;-146.27;91.31;83625.81;5029811;28;20159;-70
2023/05/02 05:27:53;;;;;;;6.95;2.20;;;;;;;-146.27;92.25;83605.72;5029680;28;20111;-70
2023/05/02 05:30:19;;;;;;;18.77;2.65;;;;;;;-146.27;92.31;83653.94;5029291;28;20067;-70
2023/05/02 05:32:44;;;;;;;17.73;2.78;;;;;;;-146.27;92.08;83617.78;5027229;28;20510;-71
2023/05/02 05:35:10;;;;;;;9.25;2.28;;;;;;;-146.27;91.39;83605.72;5029343;28;20500;-70
2023/05/02 05:37:38;;;;;;;9.77;2.33;;;;;;;-146.27;89.64;83645.91;5028521;28;20507;-70
2023/05/02 05:40:08;;;;;;;12.80;2.40;;;;;;;-146.27;89.75;83609.75;5029627;28;20025;-70
2023/05/02 05:42:33;;;;;;;6.50;2.22;;;;;;;-146.27;89.87;83593.66;5026560;28;20060;-70
2023/05/02 05:44:58;;;;;;;8.77;2.17;;;;;;;-146.27;89.94;83595.69;5030274;28;20021;-69
2023/05/02 05:47:24;;;;;;;10.73;2.55;;;;;;;-146.27;89.06;83627.81;5030322;28;20021;-70
2023/05/02 05:49:53;;;;;;;10.88;2.38;;;;;;;-146.27;87.65;83609.75;5031515;28;20025;-70
2023/05/02 05:52:18;;;;;;;7.82;2.22;;;;;;;-146.27;86.99;83601.72;5033701;28;20049;-71
2023/05/02 05:54:44;;;;;;;13.27;2.67;;;;;;;-146.27;86.40;83595.69;5031936;28;20430;-70
2023/05/02 05:57:09;;;;;;;10.52;2.15;;;;;;;-146.27;85.65;83637.88;5032765;28;20057;-70
2023/05/02 05:59:35;;;;;;;11.82;2.00;;;;;;;-146.27;85.92;83585.63;5029362;28;20021;-70
2023/05/02 06:02:00;;;;;;;7.03;2.05;;;;;;;-146.27;84.83;83607.72;5028365;28;20041;-69
2023/05/02 06:04:26;;;;;;;9.27;2.08;;;;;;;-146.27;84.92;83591.66;5033127;28;20283;-69
2023/05/02 06:06:52;;;;;;;10.45;2.42;;;;;;;-146.27;85.15;83587.63;5032849;28;20033;-71
2023/05/02 06:09:18;;;;;;;12.40;2.65;;;;;;;-146.27;84.61;83579.59;5032769;28;20068;-70
2023/05/02 06:11:43;;;;;;;11.95;2.35;;;;;;;-146.27;85.47;83583.63;5031293;28;20077;-70
2023/05/02 06:14:09;;;;;;;12.45;2.42;;;;;;;-146.27;85.13;83585.63;5031236;28;20032;-70
2023/05/02 06:16:35;;;;;;;10.45;2.50;;;;;;;-146.27;85.80;83599.69;5028803;28;20083;-70
2023/05/02 06:19:00;;;;;;;7.90;2.10;;;;;;;-146.27;83.71;83601.72;5032398;28;20033;-69
2023/05/02 06:21:25;;;;;;;10.30;2.35;;;;;;;-146.27;84.91;83601.72;5032842;28;20039;-70
2023/05/02 06:23:51;;;;;;;11.23;2.13;;;;;;;-146.27;83.98;83607.72;5032608;28;20032;-70
2023/05/02 06:26:17;;;;;;;8.77;2.50;;;;;;;-146.27;84.86;83593.66;5032581;28;20084;-70
2023/05/02 06:28:43;;;;;;;10.48;2.20;;;;;;;-146.27;83.39;83621.81;5032630;28;20083;-70
2023/05/02 06:31:08;;;;;;;15.45;2.63;;;;;;;-146.27;84.88;83617.78;5031386;28;20588;-70
2023/05/02 06:33:34;;;;;;;10.35;2.45;;;;;;;-146.27;83.17;83645.91;5030126;28;20120;-69
2023/05/02 06:36:00;;;;;;;9.52;2.05;;;;;;;-146.27;83.89;83629.84;5032153;28;20060;-70
2023/05/02 06:38:25;;;;;;;11.43;2.10;;;;;;;-146.27;83.61;83605.72;5031309;28;20029;-70
2023/05/02 06:40:51;;;;;;;14.45;2.10;;;;;;;-146.27;81.72;83597.69;5028379;28;20116;-70
2023/05/02 06:43:17;;;;;;;17.13;2.55;;;;;;;-146.27;83.16;83581.59;5035013;28;20107;-70
2023/05/02 06:45:43;;;;;;;8.10;1.90;;;;;;;-146.27;85.26;83579.59;5031986;28;20108;-69
2023/05/02 06:48:09;;;;;;;13.75;2.90;;;;;;;-146.27;83.47;83525.34;5038616;28;20121;-69
2023/05/02 06:50:35;;;;;;;5.75;2.20;;;;;;;-146.27;83.31;83553.47;5023223;28;20452;-69
2023/05/02 06:53:00;;;;;;;12.05;2.80;;;;;;;-146.27;82.40;83505.25;5029541;28;21322;-70
2023/05/02 06:55:26;;;;;;;7.55;1.85;;;;;;;-146.27;77.91;83513.28;5030465;28;20037;-73
2023/05/02 06:57:53;;;;;;;7.15;1.92;;;;;;;-146.27;77.08;83489.19;5038190;28;20123;-70
2023/05/02 07:00:19;;;;;;;9.70;1.88;;;;;;;-146.27;74.99;83477.13;5035322;28;20025;-71
2023/05/02 07:02:46;;;;;;;6.78;2.67;;;;;;;-146.27;74.45;83465.06;5033396;28;20033;-72
2023/05/02 07:05:12;;;;;;;6.88;1.90;;;;;;;-146.27;75.87;83493.19;5032085;28;20040;-72
2023/05/02 07:07:38;;;;;;;9.93;1.83;;;;;;;-146.27;75.27;83485.16;5033990;28;20029;-72
2023/05/02 07:10:03;;;;;;;4.47;2.03;;;;;;;-146.27;76.32;83465.06;5035208;28;20087;-73
2023/05/02 07:12:29;;;;;;;5.57;1.80;;;;;;;-146.27;77.97;83459.03;5041984;28;20069;-73
2023/05/02 07:14:54;;;;;;;7.72;1.92;;;;;;;-146.27;76.32;83459.03;5030224;28;20025;-72
2023/05/02 07:17:20;;;;;;;5.55;1.65;;;;;;;-146.27;76.73;83483.16;5030206;28;20033;-71
2023/05/02 07:19:45;;;;;;;7.15;1.95;;;;;;;-146.27;76.90;83493.19;5030991;28;20018;-73
2023/05/02 07:22:12;;;;;;;8.52;1.80;;;;;;;-146.27;77.67;83457.03;5030619;28;20033;-73
2023/05/02 07:24:41;;;;;;;17.80;2.22;;;;;;;-146.27;78.07;83501.22;5028505;28;20083;-73
2023/05/02 07:27:08;;;;;;;10.00;2.15;;;;;;;-146.27;79.42;83455.03;5030824;28;20025;-71
2023/05/02 07:29:33;;;;;;;8.50;1.92;;;;;;;-146.27;77.67;83455.03;5031819;28;20427;-74
2023/05/02 07:31:59;;;;;;;14.15;2.13;;;;;;;-146.27;74.25;83432.91;5031990;28;20060;-73
2023/05/02 07:34:24;;;;;;;7.68;1.48;;;;;;;-146.27;73.16;83416.84;5030538;28;20481;-73
2023/05/02 07:36:50;;;;;;;8.05;1.80;;;;;;;-146.27;69.88;83442.97;5046369;28;20731;-72
2023/05/02 07:39:15;;;;;;;12.30;1.98;;;;;;;-146.27;70.18;83428.91;5031523;28;20091;-72
2023/05/02 07:41:40;;;;;;;11.48;1.95;;;;;;;-146.27;72.38;83436.94;5033690;28;20056;-73
2023/05/02 07:44:06;;;;;;;6.93;1.88;;;;;;;-146.27;71.81;83380.69;5030260;28;20112;-72
2023/05/02 07:46:31;;;;;;;6.53;1.67;;;;;;;-146.27;71.03;83396.75;5031182;28;20044;-72
2023/05/02 07:48:56;;;;;;;6.30;1.48;;;;;;;-146.27;72.60;83390.72;5046018;28;20044;-72
2023/05/02 07:51:22;;;;;;;4.53;1.63;;;;;;;-146.27;70.68;83398.75;5030908;28;20587;-72
2023/05/02 07:53:57;;;;;;;8.77;1.50;;;;;;;-146.27;68.73;83378.66;5031534;28;20056;-72
2023/05/02 07:56:22;;;;;;;6.50;1.45;;;;;;;-146.27;68.16;83332.44;5030320;28;20389;-70
2023/05/02 07:58:48;;;;;;;7.55;1.67;;;;;;;-146.27;67.74;83360.59;5043023;28;20040;-74
2023/05/02 08:01:14;;;;;;;4.82;1.45;;;;;;;-146.27;68.96;83360.59;5032114;28;20018;-72
2023/05/02 08:03:39;;;;;;;11.43;1.63;;;;;;;-146.27;65.18;83292.28;5031999;28;20108;-72
2023/05/02 08:06:05;;;;;;;10.60;2.05;;;;;;;-146.27;62.29;83292.28;5031242;28;20484;-72
2023/05/02 08:08:30;;;;;;;9.05;1.52;;;;;;;-146.27;57.69;83328.44;5030837;28;20037;-70
2023/05/02 08:10:55;;;;;;;4.22;1.20;;;;;;;-146.27;55.62;83366.59;5028661;28;20400;-73
2023/05/02 08:13:20;;;;;;;4.55;1.15;;;;;;;-146.27;57.48;83324.41;5030608;28;20034;-72
2023/05/02 08:15:46;;;;;;;4.95;1.48;;;;;;;-146.27;55.29;83316.38;5031205;28;20032;-72
2023/05/02 08:18:11;;;;;;;12.10;1.52;;;;;;;-146.27;57.24;83332.44;5030037;28;20079;-72
2023/05/02 08:20:37;;;;;;;6.00;1.40;;;;;;;-146.27;55.39;83356.56;5030366;28;20108;-72
2023/05/02 08:23:02;;;;;;;1.63;0.98;;;;;;;-146.27;52.83;83330.44;5030057;28;20017;-71
2023/05/02 08:25:29;;;;;;;9.02;1.30;;;;;;;-146.27;55.58;83336.47;5030020;28;20017;-72
2023/05/02 08:27:54;;;;;;;6.63;1.50;;;;;;;-146.27;57.91;83356.56;5030523;28;20072;-73
2023/05/02 08:30:20;;;;;;;3.38;1.33;;;;;;;-146.27;54.67;83336.47;5029473;28;20057;-71
2023/05/02 08:32:46;;;;;;;2.47;1.00;;;;;;;-146.27;52.47;83294.28;5029087;28;20029;-71
2023/05/02 08:35:11;;;;;;;5.10;1.27;;;;;;;-146.27;53.50;83288.25;5029865;28;20076;-71
2023/05/02 08:37:37;;;;;;;5.32;1.55;;;;;;;-146.27;51.45;83336.47;5030291;28;20033;-71
2023/05/02 08:40:03;;;;;;;6.28;1.17;;;;;;;-146.27;50.24;83304.31;5030331;28;20307;-72
2023/05/02 08:42:31;;;;;;;8.10;1.30;;;;;;;-146.27;51.69;83280.22;5029811;28;20388;-70
2023/05/02 08:44:57;;;;;;;4.50;1.25;;;;;;;-146.27;50.58;83248.06;5028777;28;20025;-72
2023/05/02 08:47:24;;;;;;;6.38;1.58;;;;;;;-146.27;49.18;83221.94;5028332;28;20365;-71
2023/05/02 08:49:52;;;;;;;5.53;1.50;;;;;;;-146.27;49.50;83193.81;5025477;28;20030;-71
2023/05/02 08:52:19;;;;;;;3.50;1.17;;;;;;;-146.27;51.47;83211.91;5029657;28;20029;-70
2023/05/02 08:54:45;;;;;;;5.32;1.50;;;;;;;-146.27;51.15;83240.03;5027724;28;20399;-70
2023/05/02 08:57:10;;;;;;;4.32;1.40;;;;;;;-146.27;49.26;83290.25;5025482;28;20036;-72
2023/05/02 08:59:36;;;;;;;11.82;1.20;;;;;;;-146.27;50.96;83332.44;5027625;28;20111;-72
2023/05/02 09:02:13;;;;;;;4.18;1.30;;;;;;;-146.27;50.51;83296.28;5030870;28;20555;-71
2023/05/02 09:04:41;;;;;;;5.97;1.33;;;;;;;-146.27;50.40;83221.94;5020656;28;20578;-72
2023/05/02 09:07:06;;;;;;;10.02;1.35;;;;;;;-146.27;50.62;83183.78;5028872;28;20029;-72
2023/05/02 09:09:33;;;;;;;11.20;1.20;;;;;;;-146.27;48.12;83087.31;5028942;28;20106;-72
2023/05/02 09:11:58;;;;;;;3.83;1.45;;;;;;;-146.27;48.02;83055.19;5029880;28;20038;-73
2023/05/02 09:14:23;;;;;;;3.45;1.33;;;;;;;-146.27;51.41;83053.16;5027811;28;20031;-73
2023/05/02 09:16:49;;;;;;;8.40;1.67;;;;;;;-146.27;48.47;83067.25;5027064;28;20120;-72
2023/05/02 09:19:24;;;;;;;6.40;1.50;;;;;;;-146.27;47.77;83021.03;5030039;28;20047;-73
2023/05/02 09:21:50;;;;;;;6.15;1.50;;;;;;;-146.27;44.84;83025.03;5028800;28;20030;-73
2023/05/02 09:24:17;;;;;;;10.63;1.48;;;;;;;-146.27;46.13;82986.88;5028689;28;20036;-72
2023/05/02 09:26:56;;;;;;;4.97;1.30;;;;;;;-146.27;45.81;83037.09;5033437;28;20025;-72
2023/05/02 09:29:22;;;;;;;8.38;1.90;;;;;;;-146.27;46.07;83035.09;5027538;28;20457;-73
2023/05/02 09:31:47;;;;;;;3.53;1.30;;;;;;;-146.27;48.90;83101.38;5028593;28;20068;-73
2023/05/02 09:34:16;;;;;;;6.15;1.60;;;;;;;-146.27;48.56;83147.59;5033542;28;20061;-72
2023/05/02 09:36:52;;;;;;;3.85;1.50;;;;;;;-146.27;48.52;83069.25;5033066;28;20101;-72
2023/05/02 09:39:25;;;;;;;7.43;1.25;;;;;;;-146.27;47.45;83045.13;5029063;28;20042;-74
2023/05/02 09:41:51;;;;;;;8.07;1.50;;;;;;;-146.27;48.47;82978.84;5030231;28;20152;-74
2023/05/02 09:44:18;;;;;;;5.82;1.60;;;;;;;-146.27;49.43;82942.66;5029883;28;20053;-76
2023/05/02 09:46:47;;;;;;;5.97;1.30;;;;;;;-146.27;46.15;82890.44;5031971;28;20388;-73
2023/05/02 09:49:17;;;;;;;8.18;1.92;;;;;;;-146.27;45.62;82890.44;5038613;28;20049;-74
2023/05/02 09:51:45;;;;;;;8.43;1.42;;;;;;;-146.27;46.55;82892.44;5029776;28;20376;-74
2023/05/02 09:54:11;;;;;;;5.80;1.55;;;;;;;-146.27;46.91;82802.03;5029291;28;20025;-74
2023/05/02 09:56:55;;;;;;;8.05;1.35;;;;;;;-146.27;46.14;82798.03;5032436;28;20025;-74
2023/05/02 09:59:21;;;;;;;7.55;1.63;;;;;;;-146.27;44.74;82737.75;5027633;28;20442;-73
2023/05/02 10:01:55;;;;;;;7.07;1.40;;;;;;;-146.27;46.47;82729.72;5028874;28;20105;-74
2023/05/02 10:04:21;;;;;;;9.63;1.35;;;;;;;-146.27;43.66;82745.78;5028540;28;20025;-75
2023/05/02 10:06:50;;;;;;;4.85;1.60;;;;;;;-146.27;43.04;82705.59;5028272;28;20036;-73
2023/05/02 10:09:15;;;;;;;4.25;1.73;;;;;;;-146.27;42.55;82737.75;5027220;28;20392;-73
2023/05/02 10:11:44;;;;;;;9.50;2.15;;;;;;;-146.27;42.90;82745.78;5035876;28;20053;-73
2023/05/02 10:14:11;;;;;;;4.43;1.48;;;;;;;-146.27;44.06;82711.63;5024712;28;20244;-73
2023/05/02 10:17:00;;;;;;;5.00;1.50;;;;;;;-146.27;41.60;82709.63;5041471;28;20103;-73
2023/05/02 10:19:55;;;;;;;8.52;1.55;;;;;;;-146.27;43.35;82689.53;5034981;28;20472;-73
2023/05/02 10:22:21;;;;;;;2.30;1.38;;;;;;;-146.27;42.64;82721.69;5030661;28;20032;-70
2023/05/02 10:24:48;;;;;;;4.97;1.42;;;;;;;-146.27;41.10;82697.56;5028108;28;20033;-72
2023/05/02 10:27:13;;;;;;;6.03;1.20;;;;;;;-146.27;39.42;82681.50;5025525;28;20097;-73
2023/05/02 10:29:40;;;;;;;6.70;1.70;;;;;;;-146.27;39.83;82621.22;5026206;28;20049;-74
2023/05/02 10:32:06;;;;;;;12.18;1.90;;;;;;;-146.27;41.88;82663.41;5027598;28;20486;-73
2023/05/02 10:34:32;;;;;;;10.02;2.00;;;;;;;-146.27;42.53;82757.84;5028053;28;20381;-74
2023/05/02 10:37:01;;;;;;;10.50;1.85;;;;;;;-146.27;43.13;82721.69;5033555;28;20029;-75
2023/05/02 10:39:26;;;;;;;9.77;1.80;;;;;;;-146.27;44.10;82818.13;5030421;28;20018;-73
2023/05/02 10:41:55;;;;;;;10.63;1.65;;;;;;;-146.27;44.60;82727.72;5039638;28;20044;-74
2023/05/02 10:44:37;;;;;;;6.55;1.52;;;;;;;-146.27;42.39;82673.47;5045129;28;20029;-73
2023/05/02 10:47:20;;;;;;;4.53;1.60;;;;;;;-146.27;44.09;82573.00;5032141;28;20029;-74
2023/05/02 10:49:54;;;;;;;6.68;1.83;;;;;;;-146.27;44.30;82448.47;5031199;28;20048;-73
2023/05/02 10:52:34;;;;;;;7.10;1.70;;;;;;;-146.27;44.17;82360.09;5032812;28;20018;-74
2023/05/02 10:55:19;;;;;;;6.13;1.88;;;;;;;-146.27;39.97;82295.81;5031828;28;20043;-74
2023/05/02 10:57:59;;;;;;;8.95;1.80;;;;;;;-146.27;41.83;82327.94;5029908;28;20025;-73
2023/05/02 11:00:28;;;;;;;6.90;1.98;;;;;;;-146.27;42.24;82295.81;5033526;28;20496;-73
2023/05/02 11:02:53;;;;;;;6.75;1.83;;;;;;;-146.27;41.93;82263.66;5031728;28;20033;-75
2023/05/02 11:05:20;;;;;;;4.93;1.70;;;;;;;-146.27;39.95;82344.00;5032596;28;20477;-69
2023/05/02 11:07:45;;;;;;;9.75;1.80;;;;;;;-146.27;40.59;82440.44;5032182;28;20022;-69
2023/05/02 11:10:14;;;;;;;9.88;1.83;;;;;;;-146.27;41.09;82452.47;5031477;28;20032;-69
2023/05/02 11:12:46;;;;;;;11.45;1.95;;;;;;;-146.27;41.26;82408.28;5031500;28;20535;-69
2023/05/02 11:15:12;;;;;;;8.77;2.40;;;;;;;-146.27;41.84;82414.31;5036862;28;20032;-69